createdAt,value
2019-03-04T00:01:39.677Z,49.48
2019-03-04T00:04:11.152Z,49.52
2019-03-04T00:06:42.388Z,49.10
2019-03-04T00:09:13.733Z,48.60
2019-03-04T00:11:45.021Z,48.74
2019-03-04T00:14:17.362Z,48.39
2019-03-04T00:16:49.361Z,47.31
2019-03-04T00:19:20.489Z,47.19
2019-03-04T00:21:51.865Z,47.33
2019-03-04T00:24:23.254Z,46.83
2019-03-04T00:26:55.217Z,47.16
2019-03-04T00:29:28.214Z,47.61
2019-03-04T00:31:59.429Z,47.75
2019-03-04T00:34:30.443Z,47.41
2019-03-04T00:37:01.663Z,47.74
2019-03-04T00:39:32.978Z,47.71
2019-03-04T00:42:04.267Z,47.85
2019-03-04T00:44:35.264Z,47.77
2019-03-04T00:47:06.644Z,47.88
2019-03-04T00:49:37.696Z,47.93
2019-03-04T00:52:09.328Z,47.87
2019-03-04T00:54:40.571Z,47.42
2019-03-04T00:57:11.571Z,47.74
2019-03-04T00:59:42.631Z,47.95
2019-03-04T01:02:13.612Z,47.59
2019-03-04T01:04:45.250Z,47.94
2019-03-04T01:07:17.161Z,47.68
2019-03-04T01:09:48.932Z,47.70
2019-03-04T01:12:19.926Z,47.71
2019-03-04T01:14:51.308Z,47.92
2019-03-04T01:17:22.392Z,48.16
2019-03-04T01:19:53.454Z,48.68
2019-03-04T01:22:24.761Z,49.09
2019-03-04T01:24:55.739Z,49.02
2019-03-04T01:27:26.773Z,48.95
2019-03-04T01:29:58.089Z,48.89
2019-03-04T01:32:29.645Z,48.90
2019-03-04T01:35:00.865Z,48.45
2019-03-04T01:37:31.991Z,47.88
2019-03-04T01:40:03.077Z,47.72
2019-03-04T01:42:35.203Z,47.41
2019-03-04T01:45:06.847Z,48.15
2019-03-04T01:47:38.176Z,47.78
2019-03-04T01:50:11.949Z,47.71
2019-03-04T01:52:43.478Z,46.96
2019-03-04T01:55:16.830Z,47.43
2019-03-04T01:57:48.138Z,47.34
2019-03-04T02:00:20.247Z,47.01
2019-03-04T02:02:51.787Z,46.96
2019-03-04T02:05:22.989Z,47.60
2019-03-04T02:07:54.221Z,47.38
2019-03-04T02:10:25.529Z,47.49
2019-03-04T02:12:56.511Z,47.25
2019-03-04T02:15:27.897Z,46.98
2019-03-04T02:17:59.276Z,46.99
2019-03-04T02:20:30.748Z,46.44
2019-03-04T02:23:01.765Z,46.06
2019-03-04T02:26:20.405Z,46.36
2019-03-04T02:28:51.526Z,46.42
2019-03-04T02:31:22.600Z,46.39
2019-03-04T02:33:53.990Z,46.18
2019-03-04T02:36:25.336Z,46.37
2019-03-04T02:38:56.775Z,46.03
2019-03-04T02:41:28.046Z,45.74
2019-03-04T02:43:59.002Z,45.63
2019-03-04T02:46:30.022Z,45.02
2019-03-04T02:49:01.006Z,45.00
2019-03-04T02:51:32.062Z,44.62
2019-03-04T02:54:03.339Z,44.46
2019-03-04T02:56:35.607Z,44.48
2019-03-04T02:59:06.658Z,44.57
2019-03-04T03:01:37.887Z,44.47
2019-03-04T03:04:09.223Z,44.53
2019-03-04T03:06:40.357Z,44.48
2019-03-04T03:09:12.717Z,44.53
2019-03-04T03:11:43.701Z,44.54
2019-03-04T03:14:14.718Z,44.42
2019-03-04T03:16:45.695Z,44.44
2019-03-04T03:19:17.924Z,44.40
2019-03-04T03:21:49.164Z,44.44
2019-03-04T03:24:20.738Z,44.69
2019-03-04T03:26:51.746Z,44.72
2019-03-04T03:29:23.011Z,44.85
2019-03-04T03:31:54.511Z,45.18
2019-03-04T03:34:25.502Z,45.02
2019-03-04T03:36:57.052Z,44.96
2019-03-04T03:39:28.018Z,44.66
2019-03-04T03:41:59.515Z,44.85
2019-03-04T03:44:30.499Z,44.65
2019-03-04T03:47:02.083Z,44.43
2019-03-04T03:49:33.311Z,44.39
2019-03-04T03:52:04.372Z,44.25
2019-03-04T03:54:35.731Z,44.23
2019-03-04T03:57:06.739Z,44.42
2019-03-04T03:59:38.756Z,44.62
2019-03-04T04:02:10.128Z,44.31
2019-03-04T04:04:41.099Z,44.73
2019-03-04T04:07:12.399Z,44.51
2019-03-04T04:09:43.736Z,44.37
2019-03-04T04:12:14.733Z,44.73
2019-03-04T04:14:45.765Z,44.37
2019-03-04T04:17:17.589Z,44.62
2019-03-04T04:19:49.101Z,44.33
2019-03-04T04:22:20.180Z,44.63
2019-03-04T04:24:51.613Z,44.64
2019-03-04T04:27:22.919Z,44.22
2019-03-04T04:29:54.161Z,44.94
2019-03-04T04:32:25.498Z,45.44
2019-03-04T04:34:57.089Z,45.09
2019-03-04T04:37:28.106Z,45.08
2019-03-04T04:39:59.121Z,44.79
2019-03-04T04:42:30.682Z,44.11
2019-03-04T04:45:02.009Z,43.76
2019-03-04T04:47:32.997Z,43.52
2019-03-04T04:50:04.145Z,43.30
2019-03-04T04:52:36.045Z,43.21
2019-03-04T04:55:07.310Z,42.82
2019-03-04T04:57:38.360Z,42.52
2019-03-04T05:00:12.739Z,43.20
2019-03-04T05:02:43.852Z,42.98
2019-03-04T05:05:15.179Z,43.30
2019-03-04T05:07:46.316Z,42.98
2019-03-04T05:10:18.574Z,42.45
2019-03-04T05:12:49.875Z,42.60
2019-03-04T05:15:21.019Z,42.71
2019-03-04T05:17:52.264Z,43.02
2019-03-04T05:20:23.489Z,43.23
2019-03-04T05:22:54.934Z,43.01
2019-03-04T05:25:26.349Z,43.27
2019-03-04T05:27:57.423Z,43.35
2019-03-04T05:30:28.516Z,43.08
2019-03-04T05:33:00.061Z,43.24
2019-03-04T05:35:31.157Z,43.35
2019-03-04T05:38:03.624Z,43.14
2019-03-04T05:40:34.671Z,43.08
2019-03-04T05:43:06.989Z,43.24
2019-03-04T05:45:38.692Z,43.29
2019-03-04T05:48:10.117Z,43.31
2019-03-04T05:50:41.413Z,43.50
2019-03-04T05:53:12.718Z,43.42
2019-03-04T05:55:43.854Z,42.92
2019-03-04T05:58:14.878Z,43.04
2019-03-04T06:00:46.129Z,42.74
2019-03-04T06:03:17.901Z,42.73
2019-03-04T06:05:48.990Z,42.78
2019-03-04T06:08:20.265Z,42.81
2019-03-04T06:10:51.855Z,42.80
2019-03-04T06:13:22.855Z,43.35
2019-03-04T06:15:54.882Z,43.17
2019-03-04T06:18:26.138Z,42.89
2019-03-04T06:20:57.165Z,42.74
2019-03-04T06:23:28.213Z,42.56
2019-03-04T06:25:59.250Z,42.92
2019-03-04T06:28:30.876Z,42.87
2019-03-04T06:31:01.874Z,43.56
2019-03-04T06:33:32.878Z,43.41
2019-03-04T06:36:04.147Z,43.09
2019-03-04T06:38:36.978Z,43.39
2019-03-04T06:41:08.052Z,43.54
2019-03-04T06:43:39.039Z,43.66
2019-03-04T06:46:10.304Z,43.78
2019-03-04T06:48:41.552Z,44.00
2019-03-04T06:51:21.090Z,44.09
2019-03-04T06:54:33.328Z,44.15
2019-03-04T06:57:13.350Z,44.80
2019-03-04T07:00:38.608Z,45.03
2019-03-04T07:03:24.568Z,45.37
2019-03-04T07:05:55.781Z,45.37
2019-03-04T07:09:15.979Z,44.74
2019-03-04T07:11:50.312Z,44.02
2019-03-04T07:14:21.449Z,43.20
2019-03-04T07:16:53.708Z,43.11
2019-03-04T07:19:27.088Z,42.77
2019-03-04T07:21:58.441Z,42.87
2019-03-04T07:24:29.740Z,43.36
2019-03-04T07:27:00.813Z,42.06
2019-03-04T07:29:31.802Z,42.23
2019-03-04T07:32:02.774Z,41.71
2019-03-04T07:34:34.112Z,42.51
2019-03-04T07:37:06.433Z,42.35
2019-03-04T07:39:38.418Z,42.05
2019-03-04T07:42:09.388Z,41.91
2019-03-04T07:44:40.367Z,41.49
2019-03-04T07:47:11.874Z,41.49
2019-03-04T07:49:47.786Z,42.33
2019-03-04T07:52:20.108Z,41.98
2019-03-04T07:54:51.642Z,41.68
2019-03-04T07:57:22.982Z,42.42
2019-03-04T07:59:54.109Z,43.65
2019-03-04T08:02:25.138Z,44.01
2019-03-04T08:04:56.189Z,46.09
2019-03-04T08:07:49.590Z,48.39
2019-03-04T08:11:25.165Z,49.25
2019-03-04T08:14:00.621Z,51.76
2019-03-04T08:16:32.361Z,55.80
2019-03-04T08:19:04.978Z,58.77
2019-03-04T08:21:36.940Z,59.91
2019-03-04T08:24:08.088Z,59.57
2019-03-04T08:26:39.453Z,61.05
2019-03-04T08:29:10.548Z,60.58
2019-03-04T08:31:41.681Z,60.48
2019-03-04T08:34:12.752Z,61.82
2019-03-04T08:36:43.783Z,63.22
2019-03-04T08:39:14.867Z,65.52
2019-03-04T08:41:45.871Z,64.80
2019-03-04T08:44:16.922Z,65.38
2019-03-04T08:46:48.557Z,65.13
2019-03-04T08:49:19.629Z,64.52
2019-03-04T08:51:51.138Z,64.63
2019-03-04T08:54:22.124Z,63.81
2019-03-04T08:57:00.817Z,61.46
2019-03-04T08:59:26.037Z,61.49
2019-03-04T09:01:57.132Z,60.30
2019-03-04T09:04:28.586Z,60.15
2019-03-04T09:09:43.181Z,59.09
2019-03-04T09:15:18.984Z,59.18
2019-03-04T09:17:53.275Z,58.47
2019-03-04T09:20:24.868Z,57.93
2019-03-04T09:22:56.139Z,57.58
2019-03-04T09:25:34.431Z,57.56
2019-03-04T09:28:06.325Z,57.25
2019-03-04T09:30:37.308Z,57.49
2019-03-04T09:33:08.318Z,56.83
2019-03-04T09:35:39.675Z,56.02
2019-03-04T09:38:10.744Z,56.13
2019-03-04T09:40:41.726Z,56.97
2019-03-04T09:43:12.790Z,56.26
2019-03-04T09:45:44.143Z,55.44
2019-03-04T09:48:15.333Z,56.24
2019-03-04T09:50:46.607Z,55.52
2019-03-04T09:53:18.581Z,54.31
2019-03-04T09:55:49.812Z,54.50
2019-03-04T09:58:20.958Z,54.31
2019-03-04T10:01:27.069Z,54.73
2019-03-04T10:04:53.794Z,54.03
2019-03-04T10:07:50.739Z,54.16
2019-03-04T10:10:53.243Z,54.38
2019-03-04T10:13:59.291Z,53.25
2019-03-04T10:17:10.262Z,53.40
2019-03-04T10:20:26.994Z,53.31
2019-03-04T10:24:10.165Z,53.40
2019-03-04T10:27:27.518Z,53.37
2019-03-04T10:30:35.629Z,52.85
2019-03-04T10:34:07.640Z,53.17
2019-03-04T10:37:07.375Z,52.94
2019-03-04T10:40:11.467Z,53.35
2019-03-04T10:43:58.204Z,52.32
2019-03-04T10:46:56.697Z,53.18
2019-03-04T10:49:32.624Z,53.04
2019-03-04T10:52:03.739Z,53.55
2019-03-04T10:54:35.421Z,52.67
2019-03-04T10:57:06.840Z,53.30
2019-03-04T10:59:37.916Z,53.23
2019-03-04T11:02:08.966Z,53.14
2019-03-04T11:04:39.992Z,53.22
2019-03-04T11:07:11.127Z,53.37
2019-03-04T11:09:42.445Z,53.03
2019-03-04T11:12:14.192Z,52.81
2019-03-04T11:14:45.417Z,52.58
2019-03-04T11:17:16.481Z,52.82
2019-03-04T11:19:48.831Z,52.85
2019-03-04T11:22:19.823Z,52.87
2019-03-04T11:24:51.075Z,52.61
2019-03-04T11:27:22.280Z,51.99
2019-03-04T11:29:53.386Z,52.01
2019-03-04T11:32:24.420Z,50.85
2019-03-04T11:34:56.005Z,51.10
2019-03-04T11:37:27.142Z,50.71
2019-03-04T11:40:03.584Z,50.35
2019-03-04T11:42:34.582Z,50.14
2019-03-04T11:45:09.040Z,49.99
2019-03-04T11:47:40.320Z,49.55
2019-03-04T11:50:13.724Z,49.56
2019-03-04T11:52:44.841Z,50.15
2019-03-04T11:55:15.988Z,49.87
2019-03-04T11:57:47.072Z,49.46
2019-03-04T12:00:27.621Z,49.51
2019-03-04T12:02:58.799Z,49.37
2019-03-04T12:05:29.876Z,50.17
2019-03-04T12:08:01.117Z,49.36
2019-03-04T12:10:32.102Z,49.87
2019-03-04T12:13:03.952Z,49.26
2019-03-04T12:15:35.051Z,49.65
2019-03-04T12:18:06.566Z,49.50
2019-03-04T12:20:38.053Z,50.12
2019-03-04T12:23:09.122Z,50.42
2019-03-04T12:25:40.204Z,50.74
2019-03-04T12:28:11.513Z,51.40
2019-03-04T12:30:42.663Z,51.52
2019-03-04T12:33:14.097Z,51.30
2019-03-04T12:35:45.566Z,51.34
2019-03-04T12:38:19.149Z,51.30
2019-03-04T12:40:50.138Z,51.88
2019-03-04T12:43:22.185Z,51.36
2019-03-04T12:45:53.925Z,51.17
2019-03-04T12:48:27.962Z,51.16
2019-03-04T12:51:00.009Z,50.62
2019-03-04T12:53:37.403Z,51.66
2019-03-04T12:56:03.808Z,50.75
2019-03-04T12:58:34.781Z,49.20
2019-03-04T13:01:06.024Z,49.54
2019-03-04T13:03:37.445Z,49.05
2019-03-04T13:06:08.904Z,48.88
2019-03-04T13:08:39.968Z,48.57
2019-03-04T13:11:11.539Z,48.08
2019-03-04T13:13:42.522Z,47.99
2019-03-04T13:16:13.612Z,47.58
2019-03-04T13:18:45.009Z,46.73
2019-03-04T13:21:16.200Z,46.48
2019-03-04T13:23:47.439Z,46.64
2019-03-04T13:26:19.758Z,46.89
2019-03-04T13:28:50.826Z,46.89
2019-03-04T13:31:22.280Z,45.27
2019-03-04T13:33:53.336Z,42.29
2019-03-04T13:36:25.509Z,43.24
2019-03-04T13:38:56.727Z,41.82
2019-03-04T13:41:27.798Z,42.46
2019-03-04T13:43:59.050Z,41.16
2019-03-04T13:46:30.131Z,41.72
2019-03-04T13:49:01.673Z,39.72
2019-03-04T13:51:33.176Z,40.31
2019-03-04T13:54:04.247Z,39.81
2019-03-04T13:56:35.275Z,40.64
2019-03-04T13:59:06.331Z,40.50
2019-03-04T14:01:37.652Z,38.87
2019-03-04T14:04:09.125Z,38.97
2019-03-04T14:06:40.477Z,39.15
2019-03-04T14:09:12.314Z,39.16
2019-03-04T14:11:43.716Z,39.16
2019-03-04T14:14:14.686Z,39.76
2019-03-04T14:16:46.087Z,39.75
2019-03-04T14:19:17.298Z,40.11
2019-03-04T14:21:49.351Z,39.22
2019-03-04T14:24:20.436Z,38.60
2019-03-04T14:26:51.549Z,39.34
2019-03-04T14:29:22.871Z,39.03
2019-03-04T14:31:54.115Z,39.85
2019-03-04T14:34:25.506Z,40.84
2019-03-04T14:36:57.115Z,39.69
2019-03-04T14:39:28.375Z,39.87
2019-03-04T14:41:59.456Z,40.57
2019-03-04T14:44:30.677Z,40.07
2019-03-04T14:47:01.837Z,39.93
2019-03-04T14:49:33.920Z,39.77
2019-03-04T14:52:05.018Z,38.56
2019-03-04T14:54:36.002Z,38.55
2019-03-04T14:57:07.085Z,39.86
2019-03-04T14:59:38.073Z,38.59
2019-03-04T15:02:09.224Z,38.86
2019-03-04T15:04:40.334Z,39.07
2019-03-04T15:07:11.352Z,40.13
2019-03-04T15:09:49.233Z,41.26
2019-03-04T15:12:21.191Z,41.52
2019-03-04T15:14:54.533Z,41.61
2019-03-04T15:17:31.071Z,42.41
2019-03-04T15:20:09.309Z,42.51
2019-03-04T15:22:35.477Z,42.28
2019-03-04T15:25:09.396Z,43.71
2019-03-04T15:27:40.456Z,45.14
2019-03-04T15:30:12.686Z,46.08
2019-03-04T15:32:43.775Z,47.20
2019-03-04T15:35:14.991Z,50.20
2019-03-04T15:37:45.989Z,54.04
2019-03-04T15:40:17.099Z,57.87
2019-03-04T15:42:49.323Z,59.61
2019-03-04T15:45:20.460Z,62.50
2019-03-04T15:47:51.500Z,65.32
2019-03-04T15:50:22.629Z,67.13
2019-03-04T15:52:54.122Z,67.52
2019-03-04T15:55:25.467Z,67.26
2019-03-04T15:57:56.498Z,67.59
2019-03-04T16:00:27.615Z,68.91
2019-03-04T16:02:58.754Z,67.73
2019-03-04T16:05:30.177Z,67.86
2019-03-04T16:08:07.463Z,67.49
2019-03-04T16:10:36.072Z,66.75
2019-03-04T16:13:07.923Z,66.73
2019-03-04T16:15:41.125Z,66.99
2019-03-04T16:18:12.593Z,66.66
2019-03-04T16:20:43.833Z,66.57
2019-03-04T16:23:15.072Z,65.58
2019-03-04T16:25:46.292Z,64.79
2019-03-04T16:28:21.244Z,65.12
2019-03-04T16:30:52.954Z,64.14
2019-03-04T16:33:25.019Z,64.55
2019-03-04T16:35:56.811Z,64.19
2019-03-04T16:38:28.288Z,64.04
2019-03-04T16:40:59.514Z,63.54
2019-03-04T16:43:30.670Z,63.95
2019-03-04T16:46:02.040Z,63.63
2019-03-04T16:48:34.451Z,64.08
2019-03-04T16:51:05.575Z,64.69
2019-03-04T16:53:38.090Z,65.20
2019-03-04T16:56:09.198Z,65.11
2019-03-04T16:58:40.491Z,66.43
2019-03-04T17:01:12.400Z,66.62
2019-03-04T17:03:43.864Z,67.79
2019-03-04T17:06:14.918Z,68.82
2019-03-04T17:08:46.027Z,69.01
2019-03-04T17:11:17.249Z,68.31
2019-03-04T17:15:18.913Z,70.13
2019-03-04T17:17:50.419Z,70.01
2019-03-04T17:20:22.547Z,68.00
2019-03-04T17:22:54.178Z,67.88
2019-03-04T17:25:25.516Z,68.29
2019-03-04T17:27:56.879Z,67.57
2019-03-04T17:30:28.337Z,68.34
2019-03-04T17:32:59.778Z,67.77
2019-03-04T17:35:31.165Z,67.49
2019-03-04T17:38:02.614Z,68.67
2019-03-04T17:40:34.291Z,67.29
2019-03-04T17:43:05.901Z,67.67
2019-03-04T17:45:38.696Z,66.83
2019-03-04T17:48:11.647Z,67.10
2019-03-04T17:50:43.059Z,66.98
2019-03-04T17:53:14.403Z,66.75
2019-03-04T17:55:45.639Z,66.51
2019-03-04T17:58:17.201Z,65.94
2019-03-04T18:00:52.732Z,65.28
2019-03-04T18:03:23.953Z,64.11
2019-03-04T18:05:56.036Z,64.37
2019-03-04T18:08:27.069Z,64.16
2019-03-04T18:10:58.133Z,63.39
2019-03-04T18:13:29.154Z,62.96
2019-03-04T18:16:00.229Z,61.58
2019-03-04T18:18:31.860Z,61.34
2019-03-04T18:21:02.947Z,60.72
2019-03-04T18:23:34.182Z,62.05
2019-03-04T18:26:14.318Z,61.52
2019-03-04T18:29:04.371Z,61.65
2019-03-04T18:32:04.375Z,61.14
2019-03-04T18:35:02.341Z,61.33
2019-03-04T18:38:35.085Z,60.32
2019-03-04T18:42:15.216Z,61.24
2019-03-04T18:45:16.729Z,61.11
2019-03-04T18:48:37.049Z,61.12
2019-03-04T18:51:08.156Z,61.66
2019-03-04T18:53:39.536Z,60.80
2019-03-04T18:56:10.698Z,61.34
2019-03-04T18:58:42.041Z,60.98
2019-03-04T19:01:15.449Z,61.22
2019-03-04T19:03:46.591Z,60.42
2019-03-04T19:06:17.878Z,60.68
2019-03-04T19:08:50.323Z,60.64
2019-03-04T19:11:23.724Z,60.29
2019-03-04T19:13:55.253Z,60.56
2019-03-04T19:16:26.346Z,61.01
2019-03-04T19:18:57.942Z,61.40
2019-03-04T19:21:29.290Z,61.94
2019-03-04T19:24:00.573Z,62.57
2019-03-04T19:26:31.968Z,61.90
2019-03-04T19:29:02.955Z,61.46
2019-03-04T19:31:34.928Z,62.12
2019-03-04T19:34:06.437Z,63.24
2019-03-04T19:36:39.041Z,64.34
2019-03-04T19:39:10.779Z,65.03
2019-03-04T19:41:42.215Z,65.62
2019-03-04T19:44:13.325Z,65.87
2019-03-04T19:46:44.818Z,66.02
2019-03-04T19:49:15.896Z,66.04
2019-03-04T19:51:47.228Z,65.91
2019-03-04T19:54:20.220Z,65.37
2019-03-04T19:56:52.405Z,66.25
2019-03-04T19:59:23.769Z,67.01
2019-03-04T20:01:54.891Z,66.22
2019-03-04T20:04:26.025Z,67.03
2019-03-04T20:06:57.445Z,66.73
2019-03-04T20:09:28.411Z,67.11
2019-03-04T20:11:59.555Z,66.71
2019-03-04T20:14:30.786Z,67.21
2019-03-04T20:17:02.511Z,67.41
2019-03-04T20:19:33.550Z,67.19
2019-03-04T20:22:04.665Z,66.81
2019-03-04T20:24:35.813Z,66.23
2019-03-04T20:27:06.902Z,66.48
2019-03-04T20:29:38.559Z,65.65
2019-03-04T20:32:09.732Z,66.49
2019-03-04T20:34:40.940Z,65.72
2019-03-04T20:37:12.266Z,65.52
2019-03-04T20:39:43.752Z,66.29
2019-03-04T20:42:15.199Z,65.54
2019-03-04T20:44:46.703Z,64.94
2019-03-04T20:47:17.755Z,65.86
2019-03-04T20:49:50.731Z,66.00
2019-03-04T20:52:21.733Z,65.95
2019-03-04T20:54:52.788Z,65.71
2019-03-04T20:57:24.229Z,66.25
2019-03-04T20:59:55.631Z,66.15
2019-03-04T21:02:26.796Z,66.05
2019-03-04T21:04:57.769Z,66.28
2019-03-04T21:07:29.022Z,66.90
2019-03-04T21:10:00.316Z,66.66
2019-03-04T21:12:31.434Z,65.95
2019-03-04T21:15:02.455Z,66.48
2019-03-04T21:17:33.949Z,66.42
2019-03-04T21:20:06.079Z,66.83
2019-03-04T21:22:38.988Z,66.35
2019-03-04T21:25:50.201Z,66.72
2019-03-04T21:28:56.780Z,66.69
2019-03-04T21:32:02.233Z,66.27
2019-03-04T21:35:51.985Z,66.98
2019-03-04T21:38:28.298Z,67.59
2019-03-04T21:41:17.143Z,66.89
2019-03-04T21:44:41.410Z,67.36
2019-03-04T21:47:47.125Z,67.73
2019-03-04T21:50:24.089Z,67.54
2019-03-04T21:53:09.641Z,68.24
2019-03-04T21:56:11.729Z,68.82
2019-03-04T21:58:44.024Z,69.54
2019-03-04T22:01:24.890Z,69.81
2019-03-04T22:03:55.947Z,69.36
2019-03-04T22:06:27.070Z,70.26
2019-03-04T22:08:58.446Z,69.96
2019-03-04T22:11:29.556Z,69.58
2019-03-04T22:14:01.096Z,68.82
2019-03-04T22:16:32.130Z,67.91
2019-03-04T22:19:03.238Z,68.69
2019-03-04T22:21:35.367Z,68.16
2019-03-04T22:24:06.417Z,68.09
2019-03-04T22:26:38.691Z,67.81
2019-03-04T22:29:09.741Z,68.95
2019-03-04T22:31:40.859Z,69.05
2019-03-04T22:34:11.872Z,69.90
2019-03-04T22:36:42.930Z,69.01
2019-03-04T22:39:14.288Z,69.12
2019-03-04T22:41:45.322Z,69.58
2019-03-04T22:44:16.460Z,68.89
2019-03-04T22:46:47.495Z,68.46
2019-03-04T22:49:18.798Z,67.68
2019-03-04T22:51:50.949Z,67.59
2019-03-04T22:54:22.185Z,67.86
2019-03-04T22:56:53.218Z,66.76
2019-03-04T22:59:24.527Z,67.26
2019-03-04T23:02:02.036Z,66.34
2019-03-04T23:05:14.464Z,66.76
2019-03-04T23:07:52.563Z,66.12
2019-03-04T23:10:45.561Z,65.94
2019-03-04T23:13:55.626Z,65.69
2019-03-04T23:16:30.254Z,66.47
2019-03-04T23:19:01.395Z,65.88
2019-03-04T23:21:32.351Z,65.28
2019-03-04T23:24:03.503Z,64.73
2019-03-04T23:26:34.485Z,64.64
2019-03-04T23:29:05.604Z,65.17
2019-03-04T23:31:37.059Z,65.37
2019-03-04T23:34:08.119Z,64.89
2019-03-04T23:36:39.161Z,64.72
2019-03-04T23:39:10.565Z,65.24
2019-03-04T23:41:41.784Z,65.10
2019-03-04T23:44:12.795Z,64.78
2019-03-04T23:46:44.156Z,65.09
2019-03-04T23:49:15.134Z,65.23
2019-03-04T23:51:46.135Z,64.77
2019-03-04T23:54:17.112Z,64.04
2019-03-04T23:56:48.299Z,63.19
2019-03-04T23:59:19.618Z,64.53
